sensor_id;sensor_type;location;lat;lon;timestamp;pressure;altitude;pressure_sealevel;temperature;humidity
36254;BME280;22291;52.250;21.228;2023-05-12T12:24:00;101054.17;;;27.44;16.92
36254;BME280;22291;52.250;21.228;2023-05-12T12:26:26;101049.90;;;26.84;16.59
36254;BME280;22291;52.250;21.228;2023-05-12T12:28:52;101065.86;;;26.33;16.99
36254;BME280;22291;52.250;21.228;2023-05-12T12:31:20;101057.37;;;26.00;17.33
36254;BME280;22291;52.250;21.228;2023-05-12T12:33:46;101052.39;;;25.70;17.63
36254;BME280;22291;52.250;21.228;2023-05-12T12:36:12;101049.20;;;25.47;17.91
36254;BME280;22291;52.250;21.228;2023-05-12T12:38:38;101055.09;;;25.27;18.11
36254;BME280;22291;52.250;21.228;2023-05-12T12:41:05;101046.76;;;25.24;18.23
36254;BME280;22291;52.250;21.228;2023-05-12T12:43:32;101034.25;;;25.09;18.28
36254;BME280;22291;52.250;21.228;2023-05-12T12:45:58;101047.69;;;25.07;18.36
36254;BME280;22291;52.250;21.228;2023-05-12T12:48:25;101045.91;;;25.09;19.05
36254;BME280;22291;52.250;21.228;2023-05-12T12:50:54;101066.69;;;25.16;18.47
36254;BME280;22291;52.250;21.228;2023-05-12T12:53:20;101040.01;;;25.17;18.62
36254;BME280;22291;52.250;21.228;2023-05-12T12:55:47;101045.80;;;25.26;18.70
36254;BME280;22291;52.250;21.228;2023-05-12T12:58:13;101057.73;;;24.95;18.49
36254;BME280;22291;52.250;21.228;2023-05-12T13:00:39;101053.25;;;24.69;18.72
36254;BME280;22291;52.250;21.228;2023-05-12T13:03:06;101059.36;;;24.65;18.65
36254;BME280;22291;52.250;21.228;2023-05-12T13:05:33;101035.23;;;24.61;18.79
36254;BME280;22291;52.250;21.228;2023-05-12T13:07:59;101042.52;;;24.56;18.85
36254;BME280;22291;52.250;21.228;2023-05-12T13:10:25;101032.29;;;24.60;18.69
36254;BME280;22291;52.250;21.228;2023-05-12T13:12:53;101029.92;;;24.63;18.97
36254;BME280;22291;52.250;21.228;2023-05-12T13:15:20;101033.47;;;24.63;19.06
36254;BME280;22291;52.250;21.228;2023-05-12T13:17:46;101027.21;;;24.77;18.86
36254;BME280;22291;52.250;21.228;2023-05-12T13:20:14;101026.48;;;24.52;18.44
36254;BME280;22291;52.250;21.228;2023-05-12T13:22:41;101027.65;;;24.16;18.85
36254;BME280;22291;52.250;21.228;2023-05-12T13:25:10;101030.27;;;23.78;19.24
36254;BME280;22291;52.250;21.228;2023-05-12T13:27:37;101020.36;;;23.73;19.29
36254;BME280;22291;52.250;21.228;2023-05-12T13:30:05;101007.64;;;23.61;19.51
36254;BME280;22291;52.250;21.228;2023-05-12T13:32:33;100986.30;;;23.79;19.84
36254;BME280;22291;52.250;21.228;2023-05-12T13:35:00;101014.27;;;23.94;19.74
36254;BME280;22291;52.250;21.228;2023-05-12T13:37:26;101001.80;;;24.18;19.91
36254;BME280;22291;52.250;21.228;2023-05-12T13:39:55;101017.14;;;24.40;19.81
36254;BME280;22291;52.250;21.228;2023-05-12T13:42:21;101010.36;;;24.30;19.55
36254;BME280;22291;52.250;21.228;2023-05-12T13:44:48;101005.67;;;24.07;19.44
36254;BME280;22291;52.250;21.228;2023-05-12T13:47:15;101017.58;;;23.69;19.64
36254;BME280;22291;52.250;21.228;2023-05-12T13:49:44;101022.61;;;23.57;19.66
36254;BME280;22291;52.250;21.228;2023-05-12T13:52:10;101008.34;;;23.51;19.77
36254;BME280;22291;52.250;21.228;2023-05-12T13:54:37;101011.69;;;23.50;20.04
36254;BME280;22291;52.250;21.228;2023-05-12T14:07:33;100984.48;;;23.77;20.16
36254;BME280;22291;52.250;21.228;2023-05-12T14:09:59;100989.04;;;23.75;20.07
36254;BME280;22291;52.250;21.228;2023-05-12T14:12:26;100989.84;;;23.79;20.48
36254;BME280;22291;52.250;21.228;2023-05-12T14:14:53;100999.59;;;23.86;20.42
36254;BME280;22291;52.250;21.228;2023-05-12T14:17:19;100978.88;;;23.86;19.97
36254;BME280;22291;52.250;21.228;2023-05-12T14:19:46;100989.94;;;23.66;19.97
36254;BME280;22291;52.250;21.228;2023-05-12T14:22:12;100980.92;;;23.48;20.04
36254;BME280;22291;52.250;21.228;2023-05-12T14:24:39;100989.05;;;23.34;20.34
36254;BME280;22291;52.250;21.228;2023-05-12T14:27:06;100986.91;;;23.17;20.31
36254;BME280;22291;52.250;21.228;2023-05-12T14:29:33;100993.14;;;23.10;20.71
36254;BME280;22291;52.250;21.228;2023-05-12T14:31:59;100985.96;;;23.05;20.34
36254;BME280;22291;52.250;21.228;2023-05-12T14:34:27;100973.73;;;23.03;20.62
36254;BME280;22291;52.250;21.228;2023-05-12T14:36:53;100984.08;;;23.09;20.87
36254;BME280;22291;52.250;21.228;2023-05-12T14:39:19;100988.51;;;23.18;20.69
36254;BME280;22291;52.250;21.228;2023-05-12T14:41:45;100985.75;;;23.18;20.68
36254;BME280;22291;52.250;21.228;2023-05-12T14:44:12;100982.23;;;23.21;20.73
36254;BME280;22291;52.250;21.228;2023-05-12T14:46:38;100983.02;;;23.21;20.65
36254;BME280;22291;52.250;21.228;2023-05-12T14:49:04;100964.39;;;23.31;20.61
36254;BME280;22291;52.250;21.228;2023-05-12T14:51:32;100983.91;;;23.33;20.53
36254;BME280;22291;52.250;21.228;2023-05-12T14:53:59;100978.25;;;23.18;20.55
36254;BME280;22291;52.250;21.228;2023-05-12T14:56:25;100976.09;;;23.18;20.67
36254;BME280;22291;52.250;21.228;2023-05-12T14:58:51;100982.17;;;23.17;21.00
36254;BME280;22291;52.250;21.228;2023-05-12T15:01:17;100974.56;;;23.24;20.77
36254;BME280;22291;52.250;21.228;2023-05-12T15:03:43;100985.41;;;23.23;21.01
36254;BME280;22291;52.250;21.228;2023-05-12T15:06:11;100973.55;;;23.22;20.70
36254;BME280;22291;52.250;21.228;2023-05-12T15:08:38;100976.47;;;23.16;20.64
36254;BME280;22291;52.250;21.228;2023-05-12T15:11:05;100977.56;;;23.08;20.59
36254;BME280;22291;52.250;21.228;2023-05-12T15:13:31;100971.63;;;23.06;20.91
36254;BME280;22291;52.250;21.228;2023-05-12T15:15:57;100970.29;;;23.09;20.64
36254;BME280;22291;52.250;21.228;2023-05-12T15:18:23;100985.77;;;23.04;20.96
36254;BME280;22291;52.250;21.228;2023-05-12T15:20:50;100975.59;;;23.08;20.77
36254;BME280;22291;52.250;21.228;2023-05-12T15:23:16;100971.38;;;23.05;20.78
36254;BME280;22291;52.250;21.228;2023-05-12T15:25:42;100968.14;;;22.96;20.68
36254;BME280;22291;52.250;21.228;2023-05-12T15:28:09;100974.41;;;22.75;20.56
36254;BME280;22291;52.250;21.228;2023-05-12T15:30:35;100979.41;;;22.49;20.79
36254;BME280;22291;52.250;21.228;2023-05-12T15:33:02;100975.77;;;22.28;21.05
36254;BME280;22291;52.250;21.228;2023-05-12T15:35:29;100986.39;;;22.03;21.26
36254;BME280;22291;52.250;21.228;2023-05-12T15:37:55;100983.01;;;21.87;21.52
36254;BME280;22291;52.250;21.228;2023-05-12T15:40:21;100978.23;;;21.83;21.80
36254;BME280;22291;52.250;21.228;2023-05-12T15:42:47;100972.30;;;21.81;21.65
36254;BME280;22291;52.250;21.228;2023-05-12T15:45:14;100974.73;;;21.73;21.80
36254;BME280;22291;52.250;21.228;2023-05-12T15:47:41;100971.19;;;21.73;21.83
36254;BME280;22291;52.250;21.228;2023-05-12T15:50:08;100974.14;;;21.74;22.08
36254;BME280;22291;52.250;21.228;2023-05-12T15:52:35;100975.52;;;21.74;21.95
36254;BME280;22291;52.250;21.228;2023-05-12T15:55:01;100965.34;;;21.64;21.77
36254;BME280;22291;52.250;21.228;2023-05-12T15:57:28;100970.94;;;21.58;21.95
36254;BME280;22291;52.250;21.228;2023-05-12T15:59:58;100971.05;;;21.52;21.87
36254;BME280;22291;52.250;21.228;2023-05-12T16:02:24;100977.69;;;21.41;21.83
36254;BME280;22291;52.250;21.228;2023-05-12T16:04:51;100974.53;;;21.30;22.12
36254;BME280;22291;52.250;21.228;2023-05-12T16:09:44;100962.09;;;21.26;22.42
36254;BME280;22291;52.250;21.228;2023-05-12T16:12:10;100972.37;;;21.29;22.35
36254;BME280;22291;52.250;21.228;2023-05-12T16:14:36;100975.27;;;21.26;22.40
36254;BME280;22291;52.250;21.228;2023-05-12T16:17:04;100966.28;;;21.30;22.43
36254;BME280;22291;52.250;21.228;2023-05-12T16:19:31;100960.28;;;21.34;22.48
36254;BME280;22291;52.250;21.228;2023-05-12T16:21:57;100966.70;;;21.32;22.42
36254;BME280;22291;52.250;21.228;2023-05-12T16:24:24;100976.73;;;21.20;22.40
36254;BME280;22291;52.250;21.228;2023-05-12T16:26:53;100965.32;;;21.08;22.60
36254;BME280;22291;52.250;21.228;2023-05-12T16:29:20;100971.25;;;21.01;22.77
36254;BME280;22291;52.250;21.228;2023-05-12T16:31:47;100970.83;;;20.89;22.74
36254;BME280;22291;52.250;21.228;2023-05-12T16:34:13;100975.11;;;20.77;22.87
36254;BME280;22291;52.250;21.228;2023-05-12T16:36:40;100974.83;;;20.62;23.00
36254;BME280;22291;52.250;21.228;2023-05-12T16:39:06;100970.71;;;20.46;23.14
36254;BME280;22291;52.250;21.228;2023-05-12T16:41:33;100976.70;;;20.32;23.31
36254;BME280;22291;52.250;21.228;2023-05-12T16:44:00;100978.20;;;20.20;23.47
36254;BME280;22291;52.250;21.228;2023-05-12T16:46:26;100976.95;;;20.08;23.70
36254;BME280;22291;52.250;21.228;2023-05-12T16:48:53;100980.44;;;19.99;23.80
36254;BME280;22291;52.250;21.228;2023-05-12T16:51:19;100980.55;;;19.86;23.93
36254;BME280;22291;52.250;21.228;2023-05-12T16:53:45;100977.99;;;19.77;24.11
36254;BME280;22291;52.250;21.228;2023-05-12T16:56:12;100979.95;;;19.71;24.32
36254;BME280;22291;52.250;21.228;2023-05-12T16:58:38;100970.03;;;19.66;24.63
36254;BME280;22291;52.250;21.228;2023-05-12T17:01:04;100979.11;;;19.60;24.64
36254;BME280;22291;52.250;21.228;2023-05-12T17:03:31;100973.89;;;19.55;24.66
36254;BME280;22291;52.250;21.228;2023-05-12T17:05:57;100975.76;;;19.51;24.75
36254;BME280;22291;52.250;21.228;2023-05-12T17:08:23;100981.36;;;19.49;24.83
36254;BME280;22291;52.250;21.228;2023-05-12T17:10:50;100980.48;;;19.45;25.07
36254;BME280;22291;52.250;21.228;2023-05-12T17:13:17;100982.32;;;19.40;25.18
36254;BME280;22291;52.250;21.228;2023-05-12T17:15:43;100977.68;;;19.35;25.15
36254;BME280;22291;52.250;21.228;2023-05-12T17:18:09;100981.27;;;19.29;25.30
36254;BME280;22291;52.250;21.228;2023-05-12T17:20:38;100986.19;;;19.23;25.34
36254;BME280;22291;52.250;21.228;2023-05-12T17:23:04;100987.02;;;19.18;25.53
36254;BME280;22291;52.250;21.228;2023-05-12T17:25:30;100991.62;;;19.14;25.63
36254;BME280;22291;52.250;21.228;2023-05-12T17:27:56;100984.20;;;19.08;25.64
36254;BME280;22291;52.250;21.228;2023-05-12T17:30:23;100981.72;;;19.03;25.83
36254;BME280;22291;52.250;21.228;2023-05-12T17:32:49;100987.69;;;18.99;26.05
36254;BME280;22291;52.250;21.228;2023-05-12T17:35:15;100989.42;;;18.91;26.52
36254;BME280;22291;52.250;21.228;2023-05-12T17:37:42;100990.59;;;18.84;26.43
36254;BME280;22291;52.250;21.228;2023-05-12T17:40:13;100985.23;;;18.75;26.60
36254;BME280;22291;52.250;21.228;2023-05-12T17:42:41;100985.38;;;18.66;26.57
36254;BME280;22291;52.250;21.228;2023-05-12T17:45:10;100991.00;;;18.58;27.13
36254;BME280;22291;52.250;21.228;2023-05-12T17:47:40;100988.16;;;18.48;27.24
36254;BME280;22291;52.250;21.228;2023-05-12T17:50:09;100990.92;;;18.36;27.66
36254;BME280;22291;52.250;21.228;2023-05-12T17:52:38;100993.66;;;18.23;27.60
36254;BME280;22291;52.250;21.228;2023-05-12T17:55:05;100995.28;;;18.12;28.16
36254;BME280;22291;52.250;21.228;2023-05-12T17:57:33;100996.66;;;18.00;28.16
36254;BME280;22291;52.250;21.228;2023-05-12T17:59:59;101004.75;;;17.90;28.58
36254;BME280;22291;52.250;21.228;2023-05-12T18:02:30;100999.58;;;17.76;29.04
36254;BME280;22291;52.250;21.228;2023-05-12T18:04:56;101003.44;;;17.63;29.12
36254;BME280;22291;52.250;21.228;2023-05-12T18:07:23;101000.68;;;17.50;29.23
36254;BME280;22291;52.250;21.228;2023-05-12T18:09:49;101005.64;;;17.36;29.31
36254;BME280;22291;52.250;21.228;2023-05-12T18:12:17;101006.19;;;17.23;29.51
36254;BME280;22291;52.250;21.228;2023-05-12T18:14:44;101006.45;;;17.09;29.97
36254;BME280;22291;52.250;21.228;2023-05-12T18:17:11;101013.69;;;16.93;29.92
36254;BME280;22291;52.250;21.228;2023-05-12T18:19:37;101010.25;;;16.75;30.42
36254;BME280;22291;52.250;21.228;2023-05-12T18:22:04;101022.34;;;16.59;30.94
36254;BME280;22291;52.250;21.228;2023-05-12T18:24:32;101024.30;;;16.43;31.00
36254;BME280;22291;52.250;21.228;2023-05-12T18:26:57;101032.48;;;16.29;31.38
36254;BME280;22291;52.250;21.228;2023-05-12T18:29:24;101027.02;;;16.14;31.63
36254;BME280;22291;52.250;21.228;2023-05-12T18:31:51;101028.94;;;15.98;31.82
36254;BME280;22291;52.250;21.228;2023-05-12T18:34:17;101031.98;;;15.82;32.33
36254;BME280;22291;52.250;21.228;2023-05-12T18:36:44;101033.67;;;15.72;32.68
36254;BME280;22291;52.250;21.228;2023-05-12T18:39:10;101037.07;;;15.60;32.60
36254;BME280;22291;52.250;21.228;2023-05-12T18:41:38;101033.80;;;15.52;33.60
36254;BME280;22291;52.250;21.228;2023-05-12T18:44:05;101034.93;;;15.42;33.86
36254;BME280;22291;52.250;21.228;2023-05-12T18:46:33;101038.41;;;15.27;34.22
36254;BME280;22291;52.250;21.228;2023-05-12T18:49:00;101026.08;;;15.12;34.57
36254;BME280;22291;52.250;21.228;2023-05-12T18:51:26;101038.19;;;15.00;35.00
36254;BME280;22291;52.250;21.228;2023-05-12T18:53:52;101040.03;;;14.85;35.23
36254;BME280;22291;52.250;21.228;2023-05-12T18:56:18;101043.53;;;14.68;35.72
36254;BME280;22291;52.250;21.228;2023-05-12T18:58:45;101043.39;;;14.53;36.10
36254;BME280;22291;52.250;21.228;2023-05-12T19:01:11;101047.52;;;14.42;36.57
36254;BME280;22291;52.250;21.228;2023-05-12T19:03:38;101045.66;;;14.31;37.00
36254;BME280;22291;52.250;21.228;2023-05-12T19:06:05;101048.58;;;14.23;37.24
36254;BME280;22291;52.250;21.228;2023-05-12T19:08:31;101049.91;;;14.14;37.57
36254;BME280;22291;52.250;21.228;2023-05-12T19:10:58;101050.67;;;14.06;37.97
36254;BME280;22291;52.250;21.228;2023-05-12T19:13:25;101050.95;;;13.96;38.40
36254;BME280;22291;52.250;21.228;2023-05-12T19:15:51;101055.95;;;13.82;38.67
36254;BME280;22291;52.250;21.228;2023-05-12T19:18:17;101055.52;;;13.67;39.06
36254;BME280;22291;52.250;21.228;2023-05-12T19:20:47;101058.32;;;13.53;39.16
36254;BME280;22291;52.250;21.228;2023-05-12T19:23:14;101050.55;;;13.37;39.13
36254;BME280;22291;52.250;21.228;2023-05-12T19:25:41;101046.20;;;13.25;39.55
36254;BME280;22291;52.250;21.228;2023-05-12T19:28:08;101050.00;;;13.13;39.77
36254;BME280;22291;52.250;21.228;2023-05-12T19:30:36;101058.60;;;13.06;40.13
36254;BME280;22291;52.250;21.228;2023-05-12T19:33:03;101060.68;;;12.98;40.55
36254;BME280;22291;52.250;21.228;2023-05-12T19:35:29;101059.14;;;12.94;40.89
36254;BME280;22291;52.250;21.228;2023-05-12T19:37:56;101054.47;;;12.83;41.08
36254;BME280;22291;52.250;21.228;2023-05-12T19:40:22;101055.14;;;12.78;41.36
36254;BME280;22291;52.250;21.228;2023-05-12T19:42:48;101062.71;;;12.67;41.41
36254;BME280;22291;52.250;21.228;2023-05-12T19:45:16;101066.37;;;12.60;41.62
36254;BME280;22291;52.250;21.228;2023-05-12T19:47:44;101065.48;;;12.50;41.81
36254;BME280;22291;52.250;21.228;2023-05-12T19:50:10;101070.26;;;12.42;41.90
36254;BME280;22291;52.250;21.228;2023-05-12T19:52:36;101064.94;;;12.37;42.37
36254;BME280;22291;52.250;21.228;2023-05-12T19:55:07;101063.39;;;12.33;42.57
36254;BME280;22291;52.250;21.228;2023-05-12T19:57:34;101060.52;;;12.27;42.30
36254;BME280;22291;52.250;21.228;2023-05-12T20:00:04;101067.66;;;12.23;42.74
36254;BME280;22291;52.250;21.228;2023-05-12T20:02:33;101069.38;;;12.19;43.17
36254;BME280;22291;52.250;21.228;2023-05-12T20:05:00;101068.41;;;12.12;43.52
36254;BME280;22291;52.250;21.228;2023-05-12T20:07:29;101072.31;;;12.06;43.56
36254;BME280;22291;52.250;21.228;2023-05-12T20:09:56;101067.58;;;11.98;43.31
36254;BME280;22291;52.250;21.228;2023-05-12T20:12:26;101071.50;;;11.92;43.80
36254;BME280;22291;52.250;21.228;2023-05-12T20:14:53;101068.85;;;11.87;43.51
36254;BME280;22291;52.250;21.228;2023-05-12T20:17:20;101069.47;;;11.81;43.85
36254;BME280;22291;52.250;21.228;2023-05-12T20:19:47;101070.16;;;11.73;44.55
36254;BME280;22291;52.250;21.228;2023-05-12T20:22:13;101073.01;;;11.65;44.73
36254;BME280;22291;52.250;21.228;2023-05-12T20:24:39;101071.73;;;11.60;44.80
36254;BME280;22291;52.250;21.228;2023-05-12T20:27:05;101070.47;;;11.55;44.75
36254;BME280;22291;52.250;21.228;2023-05-12T20:29:33;101070.27;;;11.51;45.21
36254;BME280;22291;52.250;21.228;2023-05-12T20:32:03;101068.72;;;11.45;45.57
36254;BME280;22291;52.250;21.228;2023-05-12T20:34:30;101070.13;;;11.43;45.80
36254;BME280;22291;52.250;21.228;2023-05-12T20:36:56;101067.74;;;11.38;45.61
36254;BME280;22291;52.250;21.228;2023-05-12T20:39:22;101069.73;;;11.33;45.93
36254;BME280;22291;52.250;21.228;2023-05-12T20:41:48;101070.38;;;11.27;46.20
36254;BME280;22291;52.250;21.228;2023-05-12T20:44:15;101063.42;;;11.21;46.41
36254;BME280;22291;52.250;21.228;2023-05-12T20:46:41;101067.27;;;11.17;46.78
36254;BME280;22291;52.250;21.228;2023-05-12T20:49:07;101062.78;;;11.10;46.93
36254;BME280;22291;52.250;21.228;2023-05-12T20:51:35;101072.86;;;11.05;47.00
36254;BME280;22291;52.250;21.228;2023-05-12T20:54:01;101066.72;;;10.99;47.11
36254;BME280;22291;52.250;21.228;2023-05-12T20:56:27;101064.88;;;10.94;47.25
36254;BME280;22291;52.250;21.228;2023-05-12T20:58:55;101062.75;;;10.91;47.37
36254;BME280;22291;52.250;21.228;2023-05-12T21:01:23;101064.16;;;10.89;47.42
36254;BME280;22291;52.250;21.228;2023-05-12T21:03:49;101068.00;;;10.85;47.73
36254;BME280;22291;52.250;21.228;2023-05-12T21:06:15;101072.36;;;10.81;47.89
36254;BME280;22291;52.250;21.228;2023-05-12T21:08:41;101065.43;;;10.75;47.91
36254;BME280;22291;52.250;21.228;2023-05-12T21:11:18;101068.20;;;10.70;48.30
36254;BME280;22291;52.250;21.228;2023-05-12T21:13:47;101069.11;;;10.62;48.34
36254;BME280;22291;52.250;21.228;2023-05-12T21:16:15;101067.57;;;10.54;48.35
36254;BME280;22291;52.250;21.228;2023-05-12T21:18:41;101075.47;;;10.50;48.46
36254;BME280;22291;52.250;21.228;2023-05-12T21:21:11;101072.80;;;10.48;48.59
36254;BME280;22291;52.250;21.228;2023-05-12T21:23:38;101073.38;;;10.44;48.38
36254;BME280;22291;52.250;21.228;2023-05-12T21:26:07;101081.49;;;10.44;48.83
36254;BME280;22291;52.250;21.228;2023-05-12T21:28:36;101081.22;;;10.43;48.69
36254;BME280;22291;52.250;21.228;2023-05-12T21:31:04;101083.17;;;10.40;49.87
36254;BME280;22291;52.250;21.228;2023-05-12T21:33:30;101079.17;;;10.35;50.14
36254;BME280;22291;52.250;21.228;2023-05-12T21:35:59;101082.43;;;10.29;50.38
36254;BME280;22291;52.250;21.228;2023-05-12T21:38:25;101091.71;;;10.23;50.56
36254;BME280;22291;52.250;21.228;2023-05-12T21:40:51;101086.64;;;10.17;50.62
36254;BME280;22291;52.250;21.228;2023-05-12T21:43:19;101086.70;;;10.12;50.98
36254;BME280;22291;52.250;21.228;2023-05-12T21:45:46;101088.91;;;10.04;50.87
36254;BME280;22291;52.250;21.228;2023-05-12T21:48:12;101088.95;;;9.99;51.30
36254;BME280;22291;52.250;21.228;2023-05-12T21:50:38;101092.55;;;9.92;51.38
36254;BME280;22291;52.250;21.228;2023-05-12T21:53:04;101091.00;;;9.86;51.37
36254;BME280;22291;52.250;21.228;2023-05-12T21:55:30;101096.45;;;9.81;51.62
36254;BME280;22291;52.250;21.228;2023-05-12T21:57:59;101095.42;;;9.74;51.62
36254;BME280;22291;52.250;21.228;2023-05-12T22:00:25;101096.82;;;9.69;51.52
36254;BME280;22291;52.250;21.228;2023-05-12T22:02:52;101097.66;;;9.64;51.96
36254;BME280;22291;52.250;21.228;2023-05-12T22:05:18;101101.72;;;9.62;52.13
36254;BME280;22291;52.250;21.228;2023-05-12T22:07:44;101097.19;;;9.57;51.95
36254;BME280;22291;52.250;21.228;2023-05-12T22:10:12;101101.52;;;9.56;51.85
36254;BME280;22291;52.250;21.228;2023-05-12T22:12:40;101098.81;;;9.56;51.94
36254;BME280;22291;52.250;21.228;2023-05-12T22:15:09;101106.92;;;9.53;51.74
36254;BME280;22291;52.250;21.228;2023-05-12T22:17:35;101094.28;;;9.48;51.65
36254;BME280;22291;52.250;21.228;2023-05-12T22:20:04;101099.69;;;9.46;52.24
36254;BME280;22291;52.250;21.228;2023-05-12T22:22:32;101102.42;;;9.43;52.06
36254;BME280;22291;52.250;21.228;2023-05-12T22:24:58;101099.73;;;9.41;52.74
36254;BME280;22291;52.250;21.228;2023-05-12T22:27:25;101099.77;;;9.35;53.00
36254;BME280;22291;52.250;21.228;2023-05-12T22:29:51;101090.87;;;9.32;53.30
36254;BME280;22291;52.250;21.228;2023-05-12T22:32:17;101092.50;;;9.31;52.74
36254;BME280;22291;52.250;21.228;2023-05-12T22:34:43;101094.95;;;9.30;53.51
36254;BME280;22291;52.250;21.228;2023-05-12T22:37:10;101093.88;;;9.26;53.45
36254;BME280;22291;52.250;21.228;2023-05-12T22:39:36;101093.64;;;9.25;53.01
36254;BME280;22291;52.250;21.228;2023-05-12T22:42:04;101090.94;;;9.25;53.80
36254;BME280;22291;52.250;21.228;2023-05-12T22:44:31;101085.78;;;9.26;54.21
36254;BME280;22291;52.250;21.228;2023-05-12T22:46:57;101080.14;;;9.25;54.53
36254;BME280;22291;52.250;21.228;2023-05-12T22:49:23;101079.86;;;9.24;54.65
36254;BME280;22291;52.250;21.228;2023-05-12T22:51:51;101084.47;;;9.23;54.88
36254;BME280;22291;52.250;21.228;2023-05-12T22:54:17;101085.27;;;9.24;54.62
36254;BME280;22291;52.250;21.228;2023-05-12T22:56:43;101084.98;;;9.25;54.30
36254;BME280;22291;52.250;21.228;2023-05-12T22:59:09;101087.96;;;9.26;54.72
36254;BME280;22291;52.250;21.228;2023-05-12T23:01:35;101088.20;;;9.27;54.91
36254;BME280;22291;52.250;21.228;2023-05-12T23:04:01;101083.36;;;9.27;55.03
36254;BME280;22291;52.250;21.228;2023-05-12T23:06:28;101084.70;;;9.27;55.36
36254;BME280;22291;52.250;21.228;2023-05-12T23:08:55;101087.69;;;9.25;55.39
36254;BME280;22291;52.250;21.228;2023-05-12T23:11:23;101092.84;;;9.22;55.29
36254;BME280;22291;52.250;21.228;2023-05-12T23:13:50;101088.55;;;9.18;55.36
36254;BME280;22291;52.250;21.228;2023-05-12T23:16:16;101091.52;;;9.14;55.23
36254;BME280;22291;52.250;21.228;2023-05-12T23:18:42;101088.06;;;9.11;55.62
36254;BME280;22291;52.250;21.228;2023-05-12T23:21:12;101081.31;;;9.06;55.77
36254;BME280;22291;52.250;21.228;2023-05-12T23:23:38;101090.27;;;9.01;55.91
36254;BME280;22291;52.250;21.228;2023-05-12T23:26:06;101087.84;;;8.97;56.09
36254;BME280;22291;52.250;21.228;2023-05-12T23:28:32;101087.59;;;8.93;56.19
36254;BME280;22291;52.250;21.228;2023-05-12T23:30:58;101088.98;;;8.91;56.25
36254;BME280;22291;52.250;21.228;2023-05-12T23:33:25;101086.00;;;8.90;56.48
36254;BME280;22291;52.250;21.228;2023-05-12T23:35:54;101082.23;;;8.88;56.66
36254;BME280;22291;52.250;21.228;2023-05-12T23:38:20;101081.44;;;8.88;56.32
36254;BME280;22291;52.250;21.228;2023-05-12T23:40:47;101074.69;;;8.88;56.57
36254;BME280;22291;52.250;21.228;2023-05-12T23:43:13;101073.89;;;8.87;56.54
36254;BME280;22291;52.250;21.228;2023-05-12T23:45:39;101072.78;;;8.88;56.64
36254;BME280;22291;52.250;21.228;2023-05-12T23:48:07;101074.16;;;8.86;56.94
36254;BME280;22291;52.250;21.228;2023-05-12T23:50:35;101071.22;;;8.82;57.18
36254;BME280;22291;52.250;21.228;2023-05-12T23:53:01;101074.20;;;8.81;56.91
36254;BME280;22291;52.250;21.228;2023-05-12T23:55:27;101072.05;;;8.77;57.20
36254;BME280;22291;52.250;21.228;2023-05-12T23:57:53;101069.34;;;8.75;57.03
